Portada
METAR-TAF:

METAR-TAF

Aeropuertos :

Perpiñán, Francia

Aeropuerto de Perpiñán-Rivesaltes

latitud: 42-44N, longitud: 002-52E, altitud: 43 m

Observación

El informe se hizo hace 20 minutos, a las 19:30 UTC
Viento 5 kt del oeste
Temperatura 13°C
Humedad 77%
Presión 1025 hPa
Visibilidad 10 km o más
sin nubes por debajo de 1500 m y sin presencia de cumulonimbus.

METAR: LFMP 281930Z AUTO 27005KT CAVOK 13/09 Q1025 NOSIG

Hora: 21:50 (19:50 UTC)

Pronóstico

El informe se hizo hace 5 horas y 50 minutos, a las 14:00 UTC
Pronóstico válido del 28 a las 15 UTC al 29 a las 15 UTC
Viento 5 kt del este-sureste
Visibilidad 10 km o más
sin nubes por debajo de 1500 m y sin presencia de cumulonimbus.
Temporalmente
del 28 a las 19 UTC al 29 a las 12 UTC
Viento 10 kt del oeste-noroeste

TAF: LFMP 281400Z 2815/2915 12005KT CAVOK TEMPO 2819/2912 30010KT

Observaciones y pronósticos meteorológicos de más de 4000 aeropuertos (mensajes METAR y TAF).

Los puntos amarillos y rojos representan las estaciones disponibles.

Ponga el ratón en el punto deseado para ver el nombre de la estación.

Haga clic para ver las observaciones y los pronósticos meteorológicos.

Para cambiar el mapa : haga clic en los botones verdes con una cruz de color negro para hacer un zoom, en el botón verde con un guión para alejar o en las flechas verdes para mapas adyacentes.


METAR-TAF: